sensor_id;sensor_type;location;lat;lon;timestamp;P1;durP1;ratioP1;P2;durP2;ratioP2
71141;SDS011;58808;59.366;17.970;2024-02-14T00:02:11;17.55;;;6.15;;
71141;SDS011;58808;59.366;17.970;2024-02-14T00:04:37;9.95;;;5.63;;
71141;SDS011;58808;59.366;17.970;2024-02-14T00:07:04;13.50;;;5.97;;
71141;SDS011;58808;59.366;17.970;2024-02-14T00:09:30;9.68;;;5.85;;
71141;SDS011;58808;59.366;17.970;2024-02-14T00:11:56;10.23;;;6.30;;
71141;SDS011;58808;59.366;17.970;2024-02-14T00:14:21;13.25;;;6.82;;
71141;SDS011;58808;59.366;17.970;2024-02-14T00:16:47;10.48;;;6.47;;
71141;SDS011;58808;59.366;17.970;2024-02-14T00:19:13;8.90;;;5.13;;
71141;SDS011;58808;59.366;17.970;2024-02-14T00:21:39;6.82;;;5.13;;
71141;SDS011;58808;59.366;17.970;2024-02-14T00:24:04;13.32;;;6.55;;
71141;SDS011;58808;59.366;17.970;2024-02-14T00:26:31;9.20;;;5.80;;
71141;SDS011;58808;59.366;17.970;2024-02-14T00:28:56;9.57;;;5.68;;
71141;SDS011;58808;59.366;17.970;2024-02-14T00:31:22;10.88;;;6.55;;
71141;SDS011;58808;59.366;17.970;2024-02-14T00:33:48;13.23;;;7.05;;
71141;SDS011;58808;59.366;17.970;2024-02-14T00:36:14;10.75;;;6.78;;
71141;SDS011;58808;59.366;17.970;2024-02-14T00:38:40;19.60;;;5.97;;
71141;SDS011;58808;59.366;17.970;2024-02-14T00:41:05;9.77;;;4.95;;
71141;SDS011;58808;59.366;17.970;2024-02-14T00:43:31;10.23;;;6.90;;
71141;SDS011;58808;59.366;17.970;2024-02-14T00:45:57;10.95;;;6.47;;
71141;SDS011;58808;59.366;17.970;2024-02-14T00:48:23;9.18;;;6.20;;
71141;SDS011;58808;59.366;17.970;2024-02-14T00:50:49;13.63;;;6.07;;
71141;SDS011;58808;59.366;17.970;2024-02-14T00:53:14;9.18;;;5.55;;
71141;SDS011;58808;59.366;17.970;2024-02-14T00:55:40;12.70;;;5.97;;
71141;SDS011;58808;59.366;17.970;2024-02-14T00:58:06;15.63;;;6.90;;
71141;SDS011;58808;59.366;17.970;2024-02-14T01:00:32;12.63;;;5.93;;
71141;SDS011;58808;59.366;17.970;2024-02-14T01:02:58;11.82;;;5.72;;
71141;SDS011;58808;59.366;17.970;2024-02-14T01:05:23;11.32;;;6.30;;
71141;SDS011;58808;59.366;17.970;2024-02-14T01:07:49;21.83;;;6.40;;
71141;SDS011;58808;59.366;17.970;2024-02-14T01:10:18;11.48;;;6.47;;
71141;SDS011;58808;59.366;17.970;2024-02-14T01:12:44;13.63;;;5.53;;
71141;SDS011;58808;59.366;17.970;2024-02-14T01:15:10;18.58;;;5.63;;
71141;SDS011;58808;59.366;17.970;2024-02-14T01:17:35;10.82;;;6.05;;
71141;SDS011;58808;59.366;17.970;2024-02-14T01:20:02;9.65;;;5.30;;
71141;SDS011;58808;59.366;17.970;2024-02-14T01:22:28;13.00;;;7.05;;
71141;SDS011;58808;59.366;17.970;2024-02-14T01:24:54;11.05;;;6.25;;
71141;SDS011;58808;59.366;17.970;2024-02-14T01:27:20;13.05;;;5.90;;
71141;SDS011;58808;59.366;17.970;2024-02-14T01:29:48;12.02;;;6.07;;
71141;SDS011;58808;59.366;17.970;2024-02-14T01:32:13;14.20;;;7.32;;
71141;SDS011;58808;59.366;17.970;2024-02-14T01:34:39;12.30;;;6.78;;
71141;SDS011;58808;59.366;17.970;2024-02-14T01:37:07;13.05;;;7.55;;
71141;SDS011;58808;59.366;17.970;2024-02-14T01:39:35;11.85;;;6.80;;
71141;SDS011;58808;59.366;17.970;2024-02-14T01:42:00;18.02;;;7.65;;
71141;SDS011;58808;59.366;17.970;2024-02-14T01:44:31;13.18;;;6.93;;
71141;SDS011;58808;59.366;17.970;2024-02-14T01:46:58;13.77;;;7.22;;
71141;SDS011;58808;59.366;17.970;2024-02-14T01:49:24;14.32;;;6.03;;
71141;SDS011;58808;59.366;17.970;2024-02-14T01:51:53;16.23;;;5.97;;
71141;SDS011;58808;59.366;17.970;2024-02-14T01:54:23;9.95;;;5.43;;
71141;SDS011;58808;59.366;17.970;2024-02-14T01:56:50;7.85;;;5.35;;
71141;SDS011;58808;59.366;17.970;2024-02-14T01:59:16;8.60;;;5.35;;
71141;SDS011;58808;59.366;17.970;2024-02-14T02:01:43;11.50;;;6.05;;
71141;SDS011;58808;59.366;17.970;2024-02-14T02:04:09;13.82;;;5.93;;
71141;SDS011;58808;59.366;17.970;2024-02-14T02:06:35;12.13;;;6.28;;
71141;SDS011;58808;59.366;17.970;2024-02-14T02:09:02;9.93;;;6.15;;
71141;SDS011;58808;59.366;17.970;2024-02-14T02:11:28;11.07;;;6.47;;
71141;SDS011;58808;59.366;17.970;2024-02-14T02:13:54;10.80;;;6.13;;
71141;SDS011;58808;59.366;17.970;2024-02-14T02:16:20;15.98;;;6.35;;
71141;SDS011;58808;59.366;17.970;2024-02-14T02:18:47;10.85;;;6.10;;
71141;SDS011;58808;59.366;17.970;2024-02-14T02:21:13;12.85;;;7.35;;
71141;SDS011;58808;59.366;17.970;2024-02-14T02:23:39;9.63;;;6.72;;
71141;SDS011;58808;59.366;17.970;2024-02-14T02:26:09;11.35;;;6.20;;
71141;SDS011;58808;59.366;17.970;2024-02-14T02:28:36;10.73;;;6.65;;
71141;SDS011;58808;59.366;17.970;2024-02-14T02:31:02;11.52;;;6.57;;
71141;SDS011;58808;59.366;17.970;2024-02-14T02:33:27;11.70;;;6.47;;
71141;SDS011;58808;59.366;17.970;2024-02-14T02:35:53;8.75;;;5.45;;
71141;SDS011;58808;59.366;17.970;2024-02-14T02:38:19;9.68;;;5.43;;
71141;SDS011;58808;59.366;17.970;2024-02-14T02:40:46;8.93;;;5.97;;
71141;SDS011;58808;59.366;17.970;2024-02-14T02:43:12;8.65;;;5.25;;
71141;SDS011;58808;59.366;17.970;2024-02-14T02:45:38;10.07;;;5.53;;
71141;SDS011;58808;59.366;17.970;2024-02-14T02:48:04;8.30;;;5.40;;
71141;SDS011;58808;59.366;17.970;2024-02-14T02:50:30;12.95;;;5.68;;
71141;SDS011;58808;59.366;17.970;2024-02-14T02:52:56;10.38;;;6.22;;
71141;SDS011;58808;59.366;17.970;2024-02-14T02:55:22;11.45;;;5.85;;
71141;SDS011;58808;59.366;17.970;2024-02-14T02:57:48;10.00;;;6.00;;
71141;SDS011;58808;59.366;17.970;2024-02-14T03:00:14;11.88;;;5.80;;
71141;SDS011;58808;59.366;17.970;2024-02-14T03:02:41;9.00;;;5.88;;
71141;SDS011;58808;59.366;17.970;2024-02-14T03:05:09;15.38;;;6.75;;
71141;SDS011;58808;59.366;17.970;2024-02-14T03:07:36;16.45;;;6.65;;
71141;SDS011;58808;59.366;17.970;2024-02-14T03:10:02;9.38;;;5.20;;
71141;SDS011;58808;59.366;17.970;2024-02-14T03:12:29;11.43;;;6.45;;
71141;SDS011;58808;59.366;17.970;2024-02-14T03:14:56;10.60;;;6.50;;
71141;SDS011;58808;59.366;17.970;2024-02-14T03:17:23;17.30;;;7.15;;
71141;SDS011;58808;59.366;17.970;2024-02-14T03:19:49;12.50;;;7.47;;
71141;SDS011;58808;59.366;17.970;2024-02-14T03:22:16;12.55;;;6.68;;
71141;SDS011;58808;59.366;17.970;2024-02-14T03:24:44;15.85;;;7.30;;
71141;SDS011;58808;59.366;17.970;2024-02-14T03:27:11;15.10;;;7.45;;
71141;SDS011;58808;59.366;17.970;2024-02-14T03:29:37;15.43;;;7.65;;
71141;SDS011;58808;59.366;17.970;2024-02-14T03:32:04;19.05;;;8.38;;
71141;SDS011;58808;59.366;17.970;2024-02-14T03:34:31;14.07;;;7.93;;
71141;SDS011;58808;59.366;17.970;2024-02-14T03:37:00;17.00;;;7.57;;
71141;SDS011;58808;59.366;17.970;2024-02-14T03:39:32;15.48;;;7.68;;
71141;SDS011;58808;59.366;17.970;2024-02-14T03:41:57;13.20;;;7.68;;
71141;SDS011;58808;59.366;17.970;2024-02-14T03:44:26;15.27;;;7.95;;
71141;SDS011;58808;59.366;17.970;2024-02-14T03:46:53;12.77;;;7.47;;
71141;SDS011;58808;59.366;17.970;2024-02-14T03:49:18;18.00;;;7.60;;
71141;SDS011;58808;59.366;17.970;2024-02-14T03:51:44;19.40;;;8.98;;
71141;SDS011;58808;59.366;17.970;2024-02-14T03:54:11;15.98;;;7.93;;
71141;SDS011;58808;59.366;17.970;2024-02-14T03:56:37;14.57;;;8.65;;
71141;SDS011;58808;59.366;17.970;2024-02-14T03:59:03;15.18;;;8.55;;
71141;SDS011;58808;59.366;17.970;2024-02-14T04:01:30;16.15;;;7.95;;
71141;SDS011;58808;59.366;17.970;2024-02-14T04:03:56;15.43;;;8.88;;
71141;SDS011;58808;59.366;17.970;2024-02-14T04:06:22;15.23;;;7.88;;
71141;SDS011;58808;59.366;17.970;2024-02-14T04:08:47;17.13;;;8.73;;
71141;SDS011;58808;59.366;17.970;2024-02-14T04:11:14;16.58;;;9.60;;
71141;SDS011;58808;59.366;17.970;2024-02-14T04:13:40;20.73;;;9.73;;
71141;SDS011;58808;59.366;17.970;2024-02-14T04:16:05;17.60;;;9.05;;
71141;SDS011;58808;59.366;17.970;2024-02-14T04:18:31;18.23;;;9.23;;
71141;SDS011;58808;59.366;17.970;2024-02-14T04:20:57;18.67;;;9.48;;
71141;SDS011;58808;59.366;17.970;2024-02-14T04:23:23;20.95;;;9.50;;
71141;SDS011;58808;59.366;17.970;2024-02-14T04:25:50;17.38;;;9.02;;
71141;SDS011;58808;59.366;17.970;2024-02-14T04:28:16;15.88;;;8.57;;
71141;SDS011;58808;59.366;17.970;2024-02-14T04:30:41;17.92;;;9.23;;
71141;SDS011;58808;59.366;17.970;2024-02-14T04:33:08;16.08;;;8.95;;
71141;SDS011;58808;59.366;17.970;2024-02-14T04:35:34;18.75;;;8.82;;
71141;SDS011;58808;59.366;17.970;2024-02-14T04:38:00;19.92;;;9.43;;
71141;SDS011;58808;59.366;17.970;2024-02-14T04:40:26;16.92;;;8.45;;
71141;SDS011;58808;59.366;17.970;2024-02-14T04:42:51;16.95;;;8.75;;
71141;SDS011;58808;59.366;17.970;2024-02-14T04:45:17;17.65;;;8.88;;
71141;SDS011;58808;59.366;17.970;2024-02-14T04:47:43;20.40;;;8.75;;
71141;SDS011;58808;59.366;17.970;2024-02-14T04:50:09;17.00;;;9.18;;
71141;SDS011;58808;59.366;17.970;2024-02-14T04:52:35;19.80;;;9.40;;
71141;SDS011;58808;59.366;17.970;2024-02-14T04:55:00;16.70;;;9.43;;
71141;SDS011;58808;59.366;17.970;2024-02-14T04:57:26;19.23;;;9.45;;
71141;SDS011;58808;59.366;17.970;2024-02-14T04:59:52;20.45;;;9.30;;
71141;SDS011;58808;59.366;17.970;2024-02-14T05:02:17;17.58;;;9.10;;
71141;SDS011;58808;59.366;17.970;2024-02-14T05:04:43;18.13;;;9.70;;
71141;SDS011;58808;59.366;17.970;2024-02-14T05:07:09;18.63;;;9.20;;
71141;SDS011;58808;59.366;17.970;2024-02-14T05:09:34;16.52;;;9.45;;
71141;SDS011;58808;59.366;17.970;2024-02-14T05:12:00;17.50;;;9.45;;
71141;SDS011;58808;59.366;17.970;2024-02-14T05:14:26;21.05;;;10.68;;
71141;SDS011;58808;59.366;17.970;2024-02-14T05:16:56;18.48;;;10.07;;
71141;SDS011;58808;59.366;17.970;2024-02-14T05:19:21;17.70;;;9.73;;
71141;SDS011;58808;59.366;17.970;2024-02-14T05:21:47;19.48;;;10.25;;
71141;SDS011;58808;59.366;17.970;2024-02-14T05:24:13;17.02;;;9.73;;
71141;SDS011;58808;59.366;17.970;2024-02-14T05:26:39;16.73;;;9.27;;
71141;SDS011;58808;59.366;17.970;2024-02-14T05:29:05;23.20;;;10.60;;
71141;SDS011;58808;59.366;17.970;2024-02-14T05:31:42;22.42;;;10.75;;
71141;SDS011;58808;59.366;17.970;2024-02-14T05:34:11;20.02;;;10.48;;
71141;SDS011;58808;59.366;17.970;2024-02-14T05:36:37;21.98;;;10.57;;
71141;SDS011;58808;59.366;17.970;2024-02-14T05:39:03;19.65;;;10.45;;
71141;SDS011;58808;59.366;17.970;2024-02-14T05:41:30;21.98;;;10.60;;
71141;SDS011;58808;59.366;17.970;2024-02-14T05:43:58;23.25;;;10.75;;
71141;SDS011;58808;59.366;17.970;2024-02-14T05:46:23;20.92;;;10.77;;
71141;SDS011;58808;59.366;17.970;2024-02-14T05:48:50;20.65;;;10.63;;
71141;SDS011;58808;59.366;17.970;2024-02-14T05:51:17;20.23;;;10.00;;
71141;SDS011;58808;59.366;17.970;2024-02-14T05:53:43;21.38;;;10.15;;
71141;SDS011;58808;59.366;17.970;2024-02-14T05:56:09;19.92;;;9.85;;
71141;SDS011;58808;59.366;17.970;2024-02-14T05:58:35;22.23;;;10.40;;
71141;SDS011;58808;59.366;17.970;2024-02-14T06:01:01;24.00;;;11.23;;
71141;SDS011;58808;59.366;17.970;2024-02-14T06:03:26;22.83;;;10.85;;
71141;SDS011;58808;59.366;17.970;2024-02-14T06:05:52;19.10;;;10.07;;
71141;SDS011;58808;59.366;17.970;2024-02-14T06:08:18;23.45;;;10.25;;
71141;SDS011;58808;59.366;17.970;2024-02-14T06:10:44;23.15;;;9.90;;
71141;SDS011;58808;59.366;17.970;2024-02-14T06:13:10;23.48;;;11.10;;
71141;SDS011;58808;59.366;17.970;2024-02-14T06:15:36;20.55;;;10.50;;
71141;SDS011;58808;59.366;17.970;2024-02-14T06:18:01;24.02;;;10.70;;
71141;SDS011;58808;59.366;17.970;2024-02-14T06:20:27;28.42;;;12.07;;
71141;SDS011;58808;59.366;17.970;2024-02-14T06:22:53;30.05;;;11.95;;
71141;SDS011;58808;59.366;17.970;2024-02-14T06:25:19;32.78;;;11.65;;
71141;SDS011;58808;59.366;17.970;2024-02-14T06:27:45;22.70;;;10.32;;
71141;SDS011;58808;59.366;17.970;2024-02-14T06:30:11;29.15;;;11.35;;
71141;SDS011;58808;59.366;17.970;2024-02-14T06:32:37;29.17;;;11.75;;
71141;SDS011;58808;59.366;17.970;2024-02-14T06:35:03;37.42;;;12.68;;
71141;SDS011;58808;59.366;17.970;2024-02-14T06:37:29;32.17;;;11.63;;
71141;SDS011;58808;59.366;17.970;2024-02-14T06:39:54;36.85;;;13.18;;
71141;SDS011;58808;59.366;17.970;2024-02-14T06:42:20;32.72;;;12.65;;
71141;SDS011;58808;59.366;17.970;2024-02-14T06:44:46;36.33;;;13.45;;
71141;SDS011;58808;59.366;17.970;2024-02-14T06:47:12;36.30;;;13.45;;
71141;SDS011;58808;59.366;17.970;2024-02-14T06:49:38;35.92;;;12.95;;
71141;SDS011;58808;59.366;17.970;2024-02-14T06:52:04;41.95;;;12.82;;
71141;SDS011;58808;59.366;17.970;2024-02-14T06:54:29;39.80;;;12.52;;
71141;SDS011;58808;59.366;17.970;2024-02-14T06:56:55;38.70;;;13.63;;
71141;SDS011;58808;59.366;17.970;2024-02-14T06:59:21;37.03;;;13.45;;
71141;SDS011;58808;59.366;17.970;2024-02-14T07:01:46;36.45;;;11.60;;
71141;SDS011;58808;59.366;17.970;2024-02-14T07:04:12;34.33;;;12.18;;
71141;SDS011;58808;59.366;17.970;2024-02-14T07:06:38;36.42;;;12.00;;
71141;SDS011;58808;59.366;17.970;2024-02-14T07:09:03;44.13;;;13.00;;
71141;SDS011;58808;59.366;17.970;2024-02-14T07:11:29;34.08;;;12.52;;
71141;SDS011;58808;59.366;17.970;2024-02-14T07:13:55;39.90;;;11.60;;
71141;SDS011;58808;59.366;17.970;2024-02-14T07:16:21;40.72;;;11.82;;
71141;SDS011;58808;59.366;17.970;2024-02-14T07:18:47;43.95;;;11.70;;
71141;SDS011;58808;59.366;17.970;2024-02-14T07:21:14;41.92;;;12.27;;
71141;SDS011;58808;59.366;17.970;2024-02-14T07:23:40;44.30;;;12.75;;
71141;SDS011;58808;59.366;17.970;2024-02-14T07:26:05;43.22;;;13.00;;
71141;SDS011;58808;59.366;17.970;2024-02-14T07:28:31;36.75;;;12.73;;
71141;SDS011;58808;59.366;17.970;2024-02-14T07:30:57;45.10;;;13.00;;
71141;SDS011;58808;59.366;17.970;2024-02-14T07:33:23;40.55;;;13.60;;
71141;SDS011;58808;59.366;17.970;2024-02-14T07:35:49;48.70;;;13.40;;
71141;SDS011;58808;59.366;17.970;2024-02-14T07:38:14;38.42;;;12.32;;
71141;SDS011;58808;59.366;17.970;2024-02-14T07:40:41;39.80;;;12.30;;
71141;SDS011;58808;59.366;17.970;2024-02-14T07:43:07;45.08;;;14.10;;
71141;SDS011;58808;59.366;17.970;2024-02-14T07:45:33;46.25;;;12.98;;
71141;SDS011;58808;59.366;17.970;2024-02-14T07:47:58;40.85;;;12.93;;
71141;SDS011;58808;59.366;17.970;2024-02-14T07:50:24;40.95;;;12.32;;
71141;SDS011;58808;59.366;17.970;2024-02-14T07:52:50;41.53;;;13.52;;
71141;SDS011;58808;59.366;17.970;2024-02-14T07:55:15;43.30;;;12.75;;
71141;SDS011;58808;59.366;17.970;2024-02-14T07:57:41;40.67;;;13.63;;
71141;SDS011;58808;59.366;17.970;2024-02-14T08:00:08;34.53;;;11.80;;
71141;SDS011;58808;59.366;17.970;2024-02-14T08:02:35;45.85;;;12.98;;
71141;SDS011;58808;59.366;17.970;2024-02-14T08:05:01;44.03;;;12.68;;
71141;SDS011;58808;59.366;17.970;2024-02-14T08:07:27;34.50;;;12.15;;
71141;SDS011;58808;59.366;17.970;2024-02-14T08:09:53;40.92;;;13.13;;
71141;SDS011;58808;59.366;17.970;2024-02-14T08:12:20;45.03;;;12.48;;
71141;SDS011;58808;59.366;17.970;2024-02-14T08:14:46;45.35;;;13.13;;
71141;SDS011;58808;59.366;17.970;2024-02-14T08:17:12;35.53;;;12.60;;
71141;SDS011;58808;59.366;17.970;2024-02-14T08:19:38;36.97;;;13.75;;
71141;SDS011;58808;59.366;17.970;2024-02-14T08:22:04;35.15;;;12.63;;
71141;SDS011;58808;59.366;17.970;2024-02-14T08:24:31;41.63;;;12.73;;
71141;SDS011;58808;59.366;17.970;2024-02-14T08:26:56;44.28;;;13.82;;
71141;SDS011;58808;59.366;17.970;2024-02-14T08:29:22;39.72;;;12.63;;
71141;SDS011;58808;59.366;17.970;2024-02-14T08:31:48;38.20;;;13.50;;
71141;SDS011;58808;59.366;17.970;2024-02-14T08:34:14;43.42;;;12.75;;
71141;SDS011;58808;59.366;17.970;2024-02-14T08:36:41;31.65;;;11.43;;
71141;SDS011;58808;59.366;17.970;2024-02-14T08:39:07;35.33;;;11.70;;
71141;SDS011;58808;59.366;17.970;2024-02-14T08:41:35;41.08;;;11.95;;
71141;SDS011;58808;59.366;17.970;2024-02-14T08:44:06;31.42;;;11.30;;
71141;SDS011;58808;59.366;17.970;2024-02-14T08:46:31;38.95;;;12.00;;
71141;SDS011;58808;59.366;17.970;2024-02-14T08:48:59;28.20;;;9.25;;
71141;SDS011;58808;59.366;17.970;2024-02-14T08:51:27;25.10;;;10.07;;
71141;SDS011;58808;59.366;17.970;2024-02-14T08:53:53;21.52;;;8.50;;
71141;SDS011;58808;59.366;17.970;2024-02-14T08:56:22;12.68;;;6.20;;
71141;SDS011;58808;59.366;17.970;2024-02-14T08:58:48;17.48;;;6.32;;
71141;SDS011;58808;59.366;17.970;2024-02-14T09:01:14;17.00;;;7.30;;
71141;SDS011;58808;59.366;17.970;2024-02-14T09:03:40;20.70;;;6.70;;
71141;SDS011;58808;59.366;17.970;2024-02-14T09:06:12;11.63;;;5.00;;
71141;SDS011;58808;59.366;17.970;2024-02-14T09:08:39;11.00;;;5.57;;
71141;SDS011;58808;59.366;17.970;2024-02-14T09:11:05;6.25;;;2.70;;
71141;SDS011;58808;59.366;17.970;2024-02-14T09:13:31;8.68;;;4.43;;
71141;SDS011;58808;59.366;17.970;2024-02-14T09:15:57;8.95;;;4.82;;
71141;SDS011;58808;59.366;17.970;2024-02-14T09:18:22;8.60;;;4.25;;
71141;SDS011;58808;59.366;17.970;2024-02-14T09:20:49;11.40;;;5.10;;
71141;SDS011;58808;59.366;17.970;2024-02-14T09:23:15;14.20;;;5.47;;
71141;SDS011;58808;59.366;17.970;2024-02-14T09:25:45;10.32;;;5.00;;
71141;SDS011;58808;59.366;17.970;2024-02-14T09:28:12;10.80;;;5.53;;
71141;SDS011;58808;59.366;17.970;2024-02-14T09:30:39;12.52;;;5.50;;
71141;SDS011;58808;59.366;17.970;2024-02-14T09:33:05;11.40;;;5.97;;
71141;SDS011;58808;59.366;17.970;2024-02-14T09:35:30;10.55;;;5.53;;
71141;SDS011;58808;59.366;17.970;2024-02-14T09:37:56;17.35;;;5.43;;
71141;SDS011;58808;59.366;17.970;2024-02-14T09:40:22;15.02;;;5.93;;
71141;SDS011;58808;59.366;17.970;2024-02-14T09:42:54;13.80;;;5.72;;
71141;SDS011;58808;59.366;17.970;2024-02-14T09:45:25;13.40;;;6.13;;
71141;SDS011;58808;59.366;17.970;2024-02-14T09:47:52;12.23;;;5.47;;
71141;SDS011;58808;59.366;17.970;2024-02-14T09:50:19;12.90;;;6.28;;
71141;SDS011;58808;59.366;17.970;2024-02-14T09:52:46;15.27;;;7.18;;
71141;SDS011;58808;59.366;17.970;2024-02-14T09:55:14;13.73;;;6.20;;
71141;SDS011;58808;59.366;17.970;2024-02-14T09:57:41;18.05;;;7.25;;
71141;SDS011;58808;59.366;17.970;2024-02-14T10:00:10;16.05;;;7.47;;
71141;SDS011;58808;59.366;17.970;2024-02-14T10:02:39;17.88;;;7.40;;
71141;SDS011;58808;59.366;17.970;2024-02-14T10:05:05;25.88;;;12.93;;
71141;SDS011;58808;59.366;17.970;2024-02-14T10:07:39;32.83;;;14.70;;
71141;SDS011;58808;59.366;17.970;2024-02-14T10:10:06;23.10;;;9.98;;
71141;SDS011;58808;59.366;17.970;2024-02-14T10:12:32;32.20;;;9.93;;
71141;SDS011;58808;59.366;17.970;2024-02-14T10:14:58;22.77;;;8.40;;
71141;SDS011;58808;59.366;17.970;2024-02-14T10:17:23;24.70;;;9.10;;
71141;SDS011;58808;59.366;17.970;2024-02-14T10:19:59;26.33;;;8.70;;
71141;SDS011;58808;59.366;17.970;2024-02-14T10:22:33;47.90;;;20.55;;
71141;SDS011;58808;59.366;17.970;2024-02-14T10:25:03;89.72;;;36.03;;
71141;SDS011;58808;59.366;17.970;2024-02-14T10:27:33;27.23;;;10.15;;
71141;SDS011;58808;59.366;17.970;2024-02-14T10:30:04;27.23;;;10.45;;
71141;SDS011;58808;59.366;17.970;2024-02-14T10:32:34;27.38;;;9.18;;
71141;SDS011;58808;59.366;17.970;2024-02-14T10:35:00;25.52;;;9.18;;
71141;SDS011;58808;59.366;17.970;2024-02-14T10:37:26;21.85;;;9.73;;
71141;SDS011;58808;59.366;17.970;2024-02-14T10:39:54;24.27;;;9.98;;
71141;SDS011;58808;59.366;17.970;2024-02-14T10:42:23;29.25;;;8.75;;
71141;SDS011;58808;59.366;17.970;2024-02-14T10:44:49;21.30;;;9.35;;
71141;SDS011;58808;59.366;17.970;2024-02-14T10:47:19;90.00;;;42.13;;
71141;SDS011;58808;59.366;17.970;2024-02-14T10:49:48;21.23;;;10.23;;
71141;SDS011;58808;59.366;17.970;2024-02-14T10:52:16;32.05;;;14.82;;
71141;SDS011;58808;59.366;17.970;2024-02-14T10:54:47;25.88;;;10.45;;
71141;SDS011;58808;59.366;17.970;2024-02-14T10:57:21;108.97;;;48.45;;
71141;SDS011;58808;59.366;17.970;2024-02-14T10:59:50;100.43;;;47.08;;
71141;SDS011;58808;59.366;17.970;2024-02-14T11:02:18;29.20;;;12.35;;
71141;SDS011;58808;59.366;17.970;2024-02-14T11:04:45;23.90;;;10.30;;
71141;SDS011;58808;59.366;17.970;2024-02-14T11:07:10;36.38;;;10.68;;
71141;SDS011;58808;59.366;17.970;2024-02-14T11:09:37;25.55;;;9.13;;
71141;SDS011;58808;59.366;17.970;2024-02-14T11:12:06;31.52;;;10.68;;
71141;SDS011;58808;59.366;17.970;2024-02-14T11:14:33;32.33;;;11.23;;
71141;SDS011;58808;59.366;17.970;2024-02-14T11:17:01;27.10;;;10.73;;
71141;SDS011;58808;59.366;17.970;2024-02-14T11:19:30;37.17;;;12.27;;
71141;SDS011;58808;59.366;17.970;2024-02-14T11:22:10;104.90;;;41.17;;
71141;SDS011;58808;59.366;17.970;2024-02-14T11:24:47;51.22;;;21.02;;
71141;SDS011;58808;59.366;17.970;2024-02-14T11:27:13;28.90;;;11.13;;
71141;SDS011;58808;59.366;17.970;2024-02-14T11:29:39;29.48;;;10.63;;
71141;SDS011;58808;59.366;17.970;2024-02-14T11:32:10;34.75;;;10.20;;
71141;SDS011;58808;59.366;17.970;2024-02-14T11:34:36;37.15;;;10.73;;
71141;SDS011;58808;59.366;17.970;2024-02-14T11:37:02;28.65;;;10.70;;
71141;SDS011;58808;59.366;17.970;2024-02-14T11:39:30;32.05;;;9.98;;
71141;SDS011;58808;59.366;17.970;2024-02-14T11:41:58;30.02;;;10.02;;
71141;SDS011;58808;59.366;17.970;2024-02-14T11:44:25;27.70;;;9.55;;
71141;SDS011;58808;59.366;17.970;2024-02-14T11:46:51;32.08;;;11.10;;
71141;SDS011;58808;59.366;17.970;2024-02-14T11:49:16;72.30;;;31.83;;
71141;SDS011;58808;59.366;17.970;2024-02-14T11:51:43;55.95;;;21.20;;
71141;SDS011;58808;59.366;17.970;2024-02-14T11:54:09;30.25;;;11.32;;
71141;SDS011;58808;59.366;17.970;2024-02-14T11:56:35;27.90;;;10.38;;
71141;SDS011;58808;59.366;17.970;2024-02-14T11:59:06;24.52;;;10.10;;
71141;SDS011;58808;59.366;17.970;2024-02-14T12:01:33;24.42;;;10.90;;
71141;SDS011;58808;59.366;17.970;2024-02-14T12:04:00;81.28;;;33.20;;
71141;SDS011;58808;59.366;17.970;2024-02-14T12:06:33;32.75;;;14.73;;
71141;SDS011;58808;59.366;17.970;2024-02-14T12:09:00;26.90;;;10.40;;
71141;SDS011;58808;59.366;17.970;2024-02-14T12:11:33;28.92;;;10.48;;
71141;SDS011;58808;59.366;17.970;2024-02-14T12:14:03;31.20;;;9.73;;
71141;SDS011;58808;59.366;17.970;2024-02-14T12:16:30;21.00;;;9.50;;
71141;SDS011;58808;59.366;17.970;2024-02-14T12:19:03;33.88;;;10.63;;
71141;SDS011;58808;59.366;17.970;2024-02-14T12:21:36;29.85;;;9.73;;
71141;SDS011;58808;59.366;17.970;2024-02-14T12:24:06;29.38;;;9.23;;
71141;SDS011;58808;59.366;17.970;2024-02-14T12:26:34;30.67;;;10.20;;
71141;SDS011;58808;59.366;17.970;2024-02-14T12:29:03;33.78;;;9.02;;
71141;SDS011;58808;59.366;17.970;2024-02-14T12:31:30;30.90;;;9.73;;
71141;SDS011;58808;59.366;17.970;2024-02-14T12:33:59;24.40;;;8.23;;
71141;SDS011;58808;59.366;17.970;2024-02-14T12:36:30;25.90;;;9.27;;
71141;SDS011;58808;59.366;17.970;2024-02-14T12:38:56;25.45;;;8.45;;
71141;SDS011;58808;59.366;17.970;2024-02-14T12:41:22;31.73;;;10.30;;
71141;SDS011;58808;59.366;17.970;2024-02-14T12:43:55;27.92;;;9.40;;
71141;SDS011;58808;59.366;17.970;2024-02-14T12:46:21;30.35;;;9.18;;
71141;SDS011;58808;59.366;17.970;2024-02-14T12:48:47;61.35;;;26.30;;
71141;SDS011;58808;59.366;17.970;2024-02-14T12:51:15;57.17;;;23.83;;
71141;SDS011;58808;59.366;17.970;2024-02-14T12:53:41;53.83;;;22.33;;
71141;SDS011;58808;59.366;17.970;2024-02-14T12:56:07;18.27;;;8.07;;
71141;SDS011;58808;59.366;17.970;2024-02-14T12:58:33;18.73;;;8.40;;
71141;SDS011;58808;59.366;17.970;2024-02-14T13:01:00;23.67;;;8.57;;
71141;SDS011;58808;59.366;17.970;2024-02-14T13:03:26;22.17;;;7.95;;
71141;SDS011;58808;59.366;17.970;2024-02-14T13:05:53;15.48;;;6.30;;
71141;SDS011;58808;59.366;17.970;2024-02-14T13:08:20;18.48;;;6.70;;
71141;SDS011;58808;59.366;17.970;2024-02-14T13:10:45;22.55;;;7.43;;
71141;SDS011;58808;59.366;17.970;2024-02-14T13:13:12;17.67;;;6.05;;
71141;SDS011;58808;59.366;17.970;2024-02-14T13:15:39;18.25;;;6.53;;
71141;SDS011;58808;59.366;17.970;2024-02-14T13:18:05;90.28;;;40.10;;
71141;SDS011;58808;59.366;17.970;2024-02-14T13:20:31;79.70;;;36.35;;
71141;SDS011;58808;59.366;17.970;2024-02-14T13:22:57;16.67;;;5.72;;
71141;SDS011;58808;59.366;17.970;2024-02-14T13:25:23;19.38;;;5.75;;
71141;SDS011;58808;59.366;17.970;2024-02-14T13:27:49;14.70;;;6.25;;
71141;SDS011;58808;59.366;17.970;2024-02-14T13:30:15;19.13;;;5.43;;
71141;SDS011;58808;59.366;17.970;2024-02-14T13:32:41;20.30;;;6.28;;
71141;SDS011;58808;59.366;17.970;2024-02-14T13:35:07;14.32;;;5.60;;
71141;SDS011;58808;59.366;17.970;2024-02-14T13:37:33;36.03;;;13.02;;
71141;SDS011;58808;59.366;17.970;2024-02-14T13:39:59;16.35;;;6.93;;
71141;SDS011;58808;59.366;17.970;2024-02-14T13:42:26;19.58;;;7.18;;
71141;SDS011;58808;59.366;17.970;2024-02-14T13:44:51;18.85;;;5.25;;
71141;SDS011;58808;59.366;17.970;2024-02-14T13:47:19;15.77;;;4.53;;
71141;SDS011;58808;59.366;17.970;2024-02-14T13:49:45;14.40;;;4.90;;
71141;SDS011;58808;59.366;17.970;2024-02-14T13:52:11;18.42;;;4.55;;
71141;SDS011;58808;59.366;17.970;2024-02-14T13:54:37;9.25;;;3.95;;
71141;SDS011;58808;59.366;17.970;2024-02-14T13:57:02;54.60;;;31.00;;
71141;SDS011;58808;59.366;17.970;2024-02-14T13:59:28;13.50;;;4.30;;
71141;SDS011;58808;59.366;17.970;2024-02-14T14:01:54;15.18;;;3.85;;
71141;SDS011;58808;59.366;17.970;2024-02-14T14:04:20;7.15;;;3.33;;
71141;SDS011;58808;59.366;17.970;2024-02-14T14:06:46;8.90;;;2.85;;
71141;SDS011;58808;59.366;17.970;2024-02-14T14:09:12;15.55;;;3.22;;
71141;SDS011;58808;59.366;17.970;2024-02-14T14:11:38;9.38;;;3.50;;
71141;SDS011;58808;59.366;17.970;2024-02-14T14:14:04;10.70;;;3.17;;
71141;SDS011;58808;59.366;17.970;2024-02-14T14:16:30;18.42;;;3.65;;